Time;durP1;ratioP1;P1;durP2;ratioP2;P2;SDS_P1;SDS_P2;PMS_P1;PMS_P2;Temp;Humidity;BMP_temperature;BMP_pressure;BME280_temperature;BME280_humidity;BME280_pressure;Samples;Min_cycle;Max_cycle;Signal;HPM_P1;HPM_P2
2021/03/01 00:01:13;;;;;;;16.65;11.55;;;11.00;53.50;;;;;;2132001;27;20640;-62
2021/03/01 00:02:33;;;;;;;16.02;11.15;;;11.00;53.60;;;;;;2130794;27;20110;-61
2021/03/01 00:03:54;;;;;;;15.55;11.43;;;11.00;53.60;;;;;;2129474;27;20035;-61
2021/03/01 00:05:16;;;;;;;20.60;11.05;;;11.00;53.60;;;;;;2130749;27;20023;-61
2021/03/01 00:06:37;;;;;;;17.88;11.13;;;11.00;53.70;;;;;;2131053;27;20023;-62
2021/03/01 00:07:58;;;;;;;16.20;11.80;;;11.00;53.70;;;;;;2130623;27;20500;-61
2021/03/01 00:09:19;;;;;;;17.58;12.40;;;11.00;53.80;;;;;;2130591;27;20155;-62
2021/03/01 00:10:40;;;;;;;15.27;11.65;;;10.90;53.70;;;;;;2131285;27;20019;-60
2021/03/01 00:12:01;;;;;;;16.85;11.43;;;10.90;53.70;;;;;;2131828;27;20087;-61
2021/03/01 00:13:23;;;;;;;16.92;11.90;;;10.90;53.80;;;;;;2125240;27;20030;-61
2021/03/01 00:14:44;;;;;;;15.38;12.05;;;10.90;53.80;;;;;;2126214;27;20729;-61
2021/03/01 00:16:05;;;;;;;18.75;11.45;;;10.90;53.80;;;;;;2129452;27;20090;-61
2021/03/01 00:17:26;;;;;;;20.13;11.68;;;10.90;53.90;;;;;;2127089;27;20107;-61
2021/03/01 00:18:47;;;;;;;15.88;11.50;;;10.80;53.90;;;;;;2130140;27;20063;-61
2021/03/01 00:20:12;;;;;;;18.38;12.48;;;10.80;53.90;;;;;;2129198;27;20035;-61
2021/03/01 00:21:33;;;;;;;18.23;12.27;;;10.80;54.10;;;;;;2122650;27;20092;-61
2021/03/01 00:22:54;;;;;;;16.40;11.55;;;10.80;54.00;;;;;;2129423;27;20027;-61
2021/03/01 00:24:15;;;;;;;18.08;11.95;;;10.80;54.10;;;;;;2122611;27;20471;-62
2021/03/01 00:25:38;;;;;;;17.55;12.27;;;10.80;54.10;;;;;;2121069;27;20031;-61
2021/03/01 00:26:59;;;;;;;16.92;12.20;;;10.80;54.20;;;;;;2125631;27;20478;-62
2021/03/01 00:28:20;;;;;;;16.17;11.50;;;10.80;54.20;;;;;;2129849;27;20066;-62
2021/03/01 00:29:41;;;;;;;15.55;11.35;;;10.70;54.10;;;;;;2125246;27;20522;-62
2021/03/01 00:31:02;;;;;;;16.58;12.27;;;10.70;54.20;;;;;;2132004;27;20027;-62
2021/03/01 00:32:23;;;;;;;17.13;11.95;;;10.70;54.70;;;;;;2126060;27;20037;-62
2021/03/01 00:33:44;;;;;;;15.82;11.48;;;10.70;54.30;;;;;;2130138;27;20466;-61
2021/03/01 00:35:07;;;;;;;18.38;12.85;;;10.70;54.30;;;;;;2130180;27;20052;-61
2021/03/01 00:36:27;;;;;;;16.70;11.88;;;10.70;54.30;;;;;;2130846;27;20027;-61
2021/03/01 00:37:48;;;;;;;15.75;11.82;;;10.70;54.30;;;;;;2118707;27;20030;-62
2021/03/01 00:39:09;;;;;;;18.65;12.45;;;10.60;54.30;;;;;;2127363;27;20110;-62
2021/03/01 00:40:30;;;;;;;17.70;12.38;;;10.60;54.30;;;;;;2125898;27;20031;-61
2021/03/01 00:41:51;;;;;;;17.52;13.23;;;10.60;54.40;;;;;;2131605;27;20034;-62
2021/03/01 00:43:12;;;;;;;18.08;12.95;;;10.60;54.50;;;;;;2127253;27;20023;-61
2021/03/01 00:44:33;;;;;;;19.52;13.65;;;10.60;54.60;;;;;;2127218;27;20026;-61
2021/03/01 00:45:54;;;;;;;19.30;13.20;;;10.60;54.60;;;;;;2130084;27;20027;-61
2021/03/01 00:47:15;;;;;;;18.20;12.73;;;10.60;54.60;;;;;;2126165;27;20519;-62
2021/03/01 00:48:36;;;;;;;16.35;12.38;;;10.60;54.60;;;;;;2131440;27;20531;-61
2021/03/01 00:49:56;;;;;;;17.08;13.20;;;10.50;54.70;;;;;;2123788;27;20030;-62
2021/03/01 00:51:17;;;;;;;17.00;12.45;;;10.50;54.70;;;;;;2128107;27;20122;-61
2021/03/01 00:52:38;;;;;;;18.05;13.73;;;10.50;54.80;;;;;;2127084;27;20114;-61
2021/03/01 00:53:59;;;;;;;18.55;13.30;;;10.50;54.70;;;;;;2129061;27;20062;-62
2021/03/01 00:55:20;;;;;;;18.35;13.38;;;10.50;54.80;;;;;;2131189;27;20041;-62
2021/03/01 00:56:41;;;;;;;17.70;12.13;;;10.50;55.30;;;;;;2123916;27;20098;-61
2021/03/01 00:58:02;;;;;;;19.25;13.68;;;10.40;54.80;;;;;;2123590;27;20479;-61
2021/03/01 00:59:25;;;;;;;17.60;12.35;;;10.40;54.80;;;;;;2128964;27;20026;-60
2021/03/01 01:00:48;;;;;;;16.25;12.60;;;10.40;54.80;;;;;;2129949;27;20472;-61
2021/03/01 01:02:09;;;;;;;17.75;12.82;;;10.40;54.90;;;;;;2126925;27;20034;-62
2021/03/01 01:03:29;;;;;;;17.50;12.18;;;10.40;54.90;;;;;;2126629;27;20114;-62
2021/03/01 01:04:50;;;;;;;18.23;13.23;;;10.40;54.80;;;;;;2129268;27;20102;-62
2021/03/01 01:06:11;;;;;;;16.27;12.50;;;10.40;54.90;;;;;;2126600;27;20041;-61
2021/03/01 01:07:32;;;;;;;18.80;12.55;;;10.40;55.00;;;;;;2130214;27;20373;-61
2021/03/01 01:08:53;;;;;;;16.30;12.23;;;10.30;55.00;;;;;;2131247;27;20031;-61
2021/03/01 01:10:14;;;;;;;15.57;12.25;;;10.30;55.00;;;;;;2131582;27;20099;-61
2021/03/01 01:11:35;;;;;;;19.25;13.50;;;10.30;55.00;;;;;;2131216;27;20483;-61
2021/03/01 01:12:56;;;;;;;18.45;13.68;;;10.30;55.50;;;;;;2130681;27;20031;-61
2021/03/01 01:14:17;;;;;;;20.08;14.20;;;10.30;55.10;;;;;;2121804;27;20031;-61
2021/03/01 01:15:38;;;;;;;20.88;14.30;;;10.30;55.20;;;;;;2128488;27;20066;-62
2021/03/01 01:16:59;;;;;;;17.35;13.10;;;10.30;55.70;;;;;;2130002;27;20091;-61
2021/03/01 01:18:20;;;;;;;19.63;13.30;;;10.20;55.10;;;;;;2130665;27;20058;-61
2021/03/01 01:19:41;;;;;;;22.50;14.32;;;10.20;55.10;;;;;;2128646;27;20026;-61
2021/03/01 01:21:03;;;;;;;19.70;13.88;;;10.20;55.10;;;;;;2128614;27;20095;-62
2021/03/01 01:22:23;;;;;;;21.80;14.48;;;10.20;55.20;;;;;;2125854;27;20026;-60
2021/03/01 01:23:44;;;;;;;21.98;14.35;;;10.10;55.20;;;;;;2129644;27;20098;-60
2021/03/01 01:25:08;;;;;;;19.67;15.10;;;10.10;55.20;;;;;;2130456;27;20029;-60
2021/03/01 01:26:29;;;;;;;19.23;14.52;;;10.10;55.40;;;;;;2126870;27;20035;-60
2021/03/01 01:27:50;;;;;;;20.30;14.25;;;10.10;55.30;;;;;;2131891;27;20356;-60
2021/03/01 01:29:11;;;;;;;19.08;14.20;;;10.10;55.30;;;;;;2130634;27;20035;-60
2021/03/01 01:30:32;;;;;;;22.13;14.88;;;10.10;55.30;;;;;;2125555;27;20053;-61
2021/03/01 01:31:53;;;;;;;23.77;15.73;;;10.10;55.30;;;;;;2130977;27;20031;-61
2021/03/01 01:33:14;;;;;;;20.60;14.82;;;10.00;55.30;;;;;;2129955;27;20041;-60
2021/03/01 01:34:35;;;;;;;20.60;14.65;;;10.00;55.40;;;;;;2128745;27;20033;-60
2021/03/01 01:35:56;;;;;;;21.73;15.48;;;10.00;55.40;;;;;;2130936;27;20045;-60
2021/03/01 01:37:17;;;;;;;25.40;15.93;;;10.00;55.40;;;;;;2129780;27;20026;-61
2021/03/01 01:38:38;;;;;;;20.42;14.38;;;10.00;55.40;;;;;;2131218;27;20449;-60
2021/03/01 01:39:59;;;;;;;25.02;16.35;;;10.00;55.40;;;;;;2130924;27;20061;-60
2021/03/01 01:41:20;;;;;;;20.33;14.85;;;9.90;55.50;;;;;;2130238;27;20023;-61
2021/03/01 01:42:41;;;;;;;23.15;16.15;;;9.90;55.50;;;;;;2128089;27;20023;-61
2021/03/01 01:44:02;;;;;;;22.05;15.90;;;9.90;55.50;;;;;;2129324;27;20034;-61
2021/03/01 01:45:25;;;;;;;22.20;15.65;;;9.90;55.50;;;;;;2125630;27;20039;-61
2021/03/01 01:46:45;;;;;;;26.55;16.80;;;9.90;55.60;;;;;;2129902;27;20033;-60
2021/03/01 01:48:07;;;;;;;25.48;17.38;;;9.90;55.60;;;;;;2130183;27;20018;-61
2021/03/01 01:49:27;;;;;;;25.40;17.73;;;9.90;55.70;;;;;;2130399;27;20050;-61
2021/03/01 01:50:48;;;;;;;24.55;16.80;;;9.90;55.70;;;;;;2130452;27;20019;-61
2021/03/01 01:52:09;;;;;;;22.13;17.27;;;9.80;55.70;;;;;;2129626;27;20027;-61
2021/03/01 01:53:31;;;;;;;23.13;17.52;;;9.80;55.70;;;;;;2132128;27;20029;-61
2021/03/01 01:54:52;;;;;;;24.10;17.08;;;9.80;55.80;;;;;;2129281;27;20524;-61
2021/03/01 01:56:13;;;;;;;24.02;16.63;;;9.80;55.80;;;;;;2130352;27;20369;-61
2021/03/01 01:57:36;;;;;;;24.27;17.10;;;9.80;55.80;;;;;;2129658;27;20151;-61
2021/03/01 01:58:57;;;;;;;27.17;18.25;;;9.80;55.90;;;;;;2130044;27;20023;-61
2021/03/01 02:02:03;;;;;;;26.50;18.38;;;9.70;56.00;;;;;;2128751;27;20109;-61
2021/03/01 02:03:30;;;;;;;28.70;19.55;;;9.70;55.70;;;;;;2126772;27;20352;-61
2021/03/01 02:04:57;;;;;;;28.20;18.85;;;9.70;56.00;;;;;;2128992;27;20031;-61
2021/03/01 02:06:43;;;;;;;26.05;17.98;;;9.70;55.80;;;;;;2124790;27;20118;-61
2021/03/01 02:08:13;;;;;;;27.27;17.88;;;9.70;56.40;;;;;;2128954;27;20037;-61
2021/03/01 02:09:58;;;;;;;;;;;9.70;56.00;;;;;;2128164;27;20056;-62
2021/03/01 02:11:28;;;;;;;22.20;15.80;;;9.70;56.30;;;;;;2123669;27;19915;-61
2021/03/01 02:13:17;;;;;;;25.67;17.73;;;9.70;55.40;;;;;;2129636;27;20253;-61
2021/03/01 02:15:08;;;;;;;25.25;17.88;;;9.70;56.20;;;;;;2128131;27;20049;-60
2021/03/01 02:16:34;;;;;;;27.45;17.08;;;9.60;56.10;;;;;;2126675;27;20026;-60
2021/03/01 02:17:55;;;;;;;28.98;17.73;;;9.60;55.70;;;;;;2131030;27;20052;-62
2021/03/01 02:19:19;;;;;;;24.77;17.75;;;9.60;55.60;;;;;;2130968;27;20027;-62
2021/03/01 02:20:47;;;;;;;27.90;18.58;;;9.60;55.90;;;;;;2128111;27;20057;-60
2021/03/01 02:22:08;;;;;;;26.92;17.90;;;9.60;56.20;;;;;;2127913;27;20075;-61
2021/03/01 02:23:29;;;;;;;27.25;17.85;;;9.60;56.00;;;;;;2125544;27;20117;-59
2021/03/01 02:24:59;;;;;;;28.55;17.73;;;9.50;56.10;;;;;;2128800;27;20023;-61
2021/03/01 02:26:25;;;;;;;;;;;9.50;56.40;;;;;;2116546;28;20039;-61
2021/03/01 02:27:56;;;;;;;23.48;16.77;;;9.50;56.70;;;;;;2127800;27;19903;-61
2021/03/01 02:29:20;;;;;;;28.50;17.92;;;9.50;56.30;;;;;;2124911;27;20031;-60
2021/03/01 02:30:48;;;;;;;25.83;17.80;;;9.60;56.70;;;;;;2130898;27;20113;-62
2021/03/01 02:32:09;;;;;;;26.65;17.65;;;9.60;56.40;;;;;;2124135;27;20039;-62
2021/03/01 02:33:34;;;;;;;27.00;18.50;;;9.50;56.30;;;;;;2126215;27;20027;-61
2021/03/01 02:34:56;;;;;;;27.88;18.05;;;9.50;56.50;;;;;;2121404;28;20108;-60
2021/03/01 02:36:28;;;;;;;27.00;17.77;;;9.50;56.50;;;;;;2121754;27;20027;-62
2021/03/01 02:37:50;;;;;;;25.83;17.77;;;9.50;57.00;;;;;;2128688;27;20050;-60
2021/03/01 02:39:15;;;;;;;26.77;17.67;;;9.50;56.70;;;;;;2130753;27;20094;-59
2021/03/01 02:40:39;;;;;;;24.88;17.73;;;9.50;56.90;;;;;;2118059;28;20103;-60
2021/03/01 02:42:02;;;;;;;29.98;19.15;;;9.50;56.90;;;;;;2122465;28;20469;-62
2021/03/01 02:43:25;;;;;;;26.80;17.48;;;9.50;56.90;;;;;;2128901;27;20131;-61
2021/03/01 02:44:47;;;;;;;24.67;17.20;;;9.50;56.90;;;;;;2125773;27;20023;-59
2021/03/01 02:46:11;;;;;;;27.40;17.67;;;9.50;56.90;;;;;;2130031;27;20452;-62
2021/03/01 02:47:33;;;;;;;23.38;16.73;;;9.50;57.00;;;;;;2126369;27;20023;-60
2021/03/01 02:48:55;;;;;;;26.48;17.38;;;9.50;56.90;;;;;;2130267;27;20027;-59
2021/03/01 02:50:18;;;;;;;25.02;17.77;;;9.50;56.90;;;;;;2123039;27;20537;-61
2021/03/01 02:51:41;;;;;;;22.85;16.95;;;9.50;57.00;;;;;;2130925;27;20049;-61
2021/03/01 02:53:03;;;;;;;25.60;17.20;;;9.50;57.20;;;;;;2120923;28;20027;-61
2021/03/01 02:54:25;;;;;;;22.67;16.48;;;9.60;57.10;;;;;;2122829;27;20046;-61
2021/03/01 02:55:48;;;;;;;28.38;16.92;;;9.50;57.10;;;;;;2130197;27;20549;-61
2021/03/01 02:57:12;;;;;;;29.08;17.38;;;9.50;57.10;;;;;;2130702;27;20019;-61
2021/03/01 02:58:37;;;;;;;25.75;18.42;;;9.60;57.30;;;;;;2118380;28;20032;-62
2021/03/01 03:00:00;;;;;;;28.80;17.95;;;9.60;57.30;;;;;;2128163;27;20038;-62
2021/03/01 03:01:22;;;;;;;24.25;16.98;;;9.60;57.30;;;;;;2129422;27;20480;-61
2021/03/01 03:02:44;;;;;;;23.50;16.13;;;9.60;57.20;;;;;;2128842;27;20359;-61
2021/03/01 03:04:07;;;;;;;27.38;17.50;;;9.60;57.30;;;;;;2130178;27;20038;-60
2021/03/01 03:05:28;;;;;;;27.42;17.30;;;9.60;57.30;;;;;;2125527;27;20029;-62
2021/03/01 03:06:51;;;;;;;26.95;17.58;;;9.60;57.20;;;;;;2128870;27;20019;-60
2021/03/01 03:08:12;;;;;;;25.63;18.15;;;9.60;57.20;;;;;;2123753;27;20038;-61
2021/03/01 03:09:34;;;;;;;26.33;17.65;;;9.60;57.30;;;;;;2129420;27;20015;-65
2021/03/01 03:10:56;;;;;;;24.15;15.98;;;9.60;57.30;;;;;;2130207;27;20384;-61
2021/03/01 03:12:18;;;;;;;23.83;16.20;;;9.60;57.20;;;;;;2130251;27;20037;-61
2021/03/01 03:13:41;;;;;;;25.95;17.23;;;9.60;57.10;;;;;;2129198;27;20048;-62
2021/03/01 03:15:03;;;;;;;25.58;17.77;;;9.70;57.20;;;;;;2123102;27;20106;-61
2021/03/01 03:16:25;;;;;;;27.83;16.67;;;9.60;57.10;;;;;;2128776;27;20046;-61
2021/03/01 03:17:50;;;;;;;27.80;17.80;;;9.70;57.30;;;;;;2130887;27;20019;-60
2021/03/01 03:19:11;;;;;;;23.95;16.33;;;9.60;57.30;;;;;;2125071;27;20022;-61
2021/03/01 03:20:31;;;;;;;26.52;16.92;;;9.60;57.20;;;;;;2127198;27;20651;-61
2021/03/01 03:21:52;;;;;;;24.95;17.30;;;9.70;57.20;;;;;;2131733;27;20047;-61
2021/03/01 03:23:13;;;;;;;25.75;17.17;;;9.60;57.20;;;;;;2131191;27;20023;-61
2021/03/01 03:24:34;;;;;;;25.88;18.25;;;9.60;57.30;;;;;;2128241;27;20031;-61
2021/03/01 03:25:55;;;;;;;25.23;17.15;;;9.60;57.30;;;;;;2130760;27;20026;-61
2021/03/01 03:27:16;;;;;;;24.30;17.05;;;9.60;57.20;;;;;;2126093;27;20035;-61
2021/03/01 03:28:37;;;;;;;23.33;15.23;;;9.60;57.30;;;;;;2131079;27;20323;-61
2021/03/01 03:29:58;;;;;;;20.60;15.32;;;9.60;57.20;;;;;;2132876;27;20046;-66
2021/03/01 03:31:19;;;;;;;22.40;15.50;;;9.60;57.20;;;;;;2131532;27;20339;-59
2021/03/01 03:32:40;;;;;;;23.25;16.45;;;9.60;57.20;;;;;;2131096;27;20117;-61
2021/03/01 03:34:01;;;;;;;23.98;15.43;;;9.60;57.10;;;;;;2131868;27;20027;-62
2021/03/01 03:35:23;;;;;;;24.52;16.48;;;9.60;57.10;;;;;;2132446;27;20149;-62
2021/03/01 03:36:49;;;;;;;20.70;14.75;;;9.60;57.20;;;;;;2131925;27;20026;-62
2021/03/01 03:38:31;;;;;;;23.98;15.63;;;9.60;57.40;;;;;;2124797;27;20458;-61
2021/03/01 03:39:55;;;;;;;25.15;15.25;;;9.60;57.70;;;;;;2131096;27;20031;-61
2021/03/01 03:41:17;;;;;;;24.65;14.95;;;9.60;57.20;;;;;;2129120;27;20058;-62
2021/03/01 03:42:39;;;;;;;21.80;15.18;;;9.60;57.20;;;;;;2131703;27;20404;-62
2021/03/01 03:44:01;;;;;;;23.88;15.63;;;9.60;57.20;;;;;;2132126;27;20034;-62
2021/03/01 03:45:25;;;;;;;21.17;15.18;;;9.60;57.30;;;;;;2124887;27;20023;-61
2021/03/01 03:46:46;;;;;;;22.65;16.05;;;9.60;57.20;;;;;;2132041;27;20472;-61
2021/03/01 03:48:08;;;;;;;21.30;15.52;;;9.60;57.10;;;;;;2131424;27;20027;-61
2021/03/01 03:49:30;;;;;;;22.42;15.00;;;9.60;57.20;;;;;;2128590;27;20109;-61
2021/03/01 03:51:00;;;;;;;24.48;16.38;;;9.60;57.20;;;;;;2131612;27;20027;-61
2021/03/01 03:52:25;;;;;;;22.75;15.93;;;9.60;57.20;;;;;;2131401;27;20030;-62
2021/03/01 03:53:54;;;;;;;24.42;16.35;;;9.60;57.20;;;;;;2130075;27;20429;-61
2021/03/01 03:55:19;;;;;;;23.17;15.45;;;9.60;57.30;;;;;;2130644;27;20050;-61
2021/03/01 03:56:45;;;;;;;23.35;15.43;;;9.60;57.70;;;;;;2128387;27;20027;-61
2021/03/01 03:58:10;;;;;;;23.83;15.05;;;9.60;57.10;;;;;;2131593;27;20133;-62
2021/03/01 03:59:33;;;;;;;24.55;15.68;;;9.60;57.10;;;;;;2127421;27;20383;-61
2021/03/01 04:00:57;;;;;;;25.83;16.33;;;9.50;57.10;;;;;;2131276;27;20493;-62
2021/03/01 04:02:21;;;;;;;25.10;16.25;;;9.60;57.20;;;;;;2131370;27;20030;-61
2021/03/01 04:03:43;;;;;;;23.00;14.93;;;9.50;57.30;;;;;;2130883;27;20497;-61
2021/03/01 04:05:05;;;;;;;25.80;16.20;;;9.50;57.20;;;;;;2129519;27;20023;-61
2021/03/01 04:06:26;;;;;;;20.65;14.30;;;9.50;57.40;;;;;;2131372;27;20019;-61
2021/03/01 04:07:48;;;;;;;24.02;15.77;;;9.50;57.20;;;;;;2131289;27;20031;-61
2021/03/01 04:09:12;;;;;;;22.17;15.27;;;9.50;57.30;;;;;;2130514;27;20069;-61
2021/03/01 04:10:35;;;;;;;25.35;16.02;;;9.50;57.40;;;;;;2121413;27;20028;-61
2021/03/01 04:11:57;;;;;;;24.77;16.45;;;9.50;57.30;;;;;;2128261;27;20034;-61
2021/03/01 04:13:19;;;;;;;23.05;15.57;;;9.50;57.50;;;;;;2132276;27;20037;-61
2021/03/01 04:14:41;;;;;;;25.65;15.73;;;9.50;57.50;;;;;;2121464;27;20105;-61
2021/03/01 04:16:03;;;;;;;27.05;16.45;;;9.50;57.50;;;;;;2120744;27;20066;-61
2021/03/01 04:17:25;;;;;;;23.10;15.75;;;9.50;57.60;;;;;;2124702;27;20031;-61
2021/03/01 04:18:49;;;;;;;24.80;16.25;;;9.50;57.60;;;;;;2131110;27;20023;-61
2021/03/01 04:20:12;;;;;;;26.52;16.55;;;9.50;57.70;;;;;;2124128;27;20031;-61
2021/03/01 04:21:35;;;;;;;23.75;16.42;;;9.50;57.70;;;;;;2125208;27;20016;-61
2021/03/01 04:22:58;;;;;;;25.27;16.58;;;9.50;57.80;;;;;;2131287;27;20018;-61
2021/03/01 04:24:22;;;;;;;24.73;16.17;;;9.50;57.70;;;;;;2126024;27;20031;-61
2021/03/01 04:25:44;;;;;;;24.10;16.92;;;9.50;57.70;;;;;;2119774;27;20093;-61
2021/03/01 04:27:06;;;;;;;25.52;16.27;;;9.50;57.60;;;;;;2131204;27;20019;-61
2021/03/01 04:28:27;;;;;;;22.95;15.02;;;9.50;57.60;;;;;;2126466;27;20050;-61
2021/03/01 04:29:49;;;;;;;24.30;15.57;;;9.50;57.60;;;;;;2129231;27;20058;-61
2021/03/01 04:31:11;;;;;;;24.90;16.08;;;9.50;57.60;;;;;;2128739;27;20031;-61
2021/03/01 04:32:40;;;;;;;24.92;16.15;;;9.50;57.60;;;;;;2126342;27;20019;-62
2021/03/01 04:34:03;;;;;;;25.27;16.40;;;9.50;57.60;;;;;;2131359;27;20095;-61
2021/03/01 04:35:26;;;;;;;23.88;15.68;;;9.50;57.50;;;;;;2126141;27;20058;-61
2021/03/01 04:36:47;;;;;;;22.88;14.48;;;9.50;57.50;;;;;;2128203;27;20404;-61
2021/03/01 04:38:08;;;;;;;23.95;15.90;;;9.50;57.50;;;;;;2131860;27;20042;-61
2021/03/01 04:39:29;;;;;;;26.42;14.80;;;9.50;57.60;;;;;;2127097;27;20055;-61
2021/03/01 04:40:51;;;;;;;21.15;14.38;;;9.50;57.60;;;;;;2131536;27;20027;-61
2021/03/01 04:42:12;;;;;;;23.48;15.63;;;9.50;57.50;;;;;;2128024;27;20027;-61
2021/03/01 04:43:37;;;;;;;21.15;14.90;;;9.50;57.50;;;;;;2128500;27;20026;-61
2021/03/01 04:44:59;;;;;;;22.58;14.85;;;9.50;57.60;;;;;;2130824;27;20026;-61
2021/03/01 04:46:21;;;;;;;24.23;14.90;;;9.50;57.60;;;;;;2125509;27;20069;-61
2021/03/01 04:47:44;;;;;;;20.05;13.60;;;9.50;57.60;;;;;;2130152;27;20033;-61
2021/03/01 04:49:06;;;;;;;22.85;15.13;;;9.50;58.10;;;;;;2128215;27;20062;-61
2021/03/01 04:50:27;;;;;;;21.50;15.43;;;9.60;57.70;;;;;;2118130;27;20031;-61
2021/03/01 04:51:49;;;;;;;22.40;15.48;;;9.50;57.60;;;;;;2124777;27;20031;-61
2021/03/01 04:53:10;;;;;;;23.60;15.10;;;9.50;57.60;;;;;;2131621;27;20034;-61
2021/03/01 04:54:32;;;;;;;25.58;15.63;;;9.50;57.60;;;;;;2120123;27;20023;-61
2021/03/01 04:55:53;;;;;;;22.25;14.00;;;9.50;57.60;;;;;;2128767;27;20043;-61
2021/03/01 04:57:16;;;;;;;23.15;15.00;;;9.50;57.60;;;;;;2129464;27;20030;-61
2021/03/01 04:58:38;;;;;;;20.85;14.00;;;9.50;57.70;;;;;;2120277;27;20119;-61
2021/03/01 05:00:00;;;;;;;21.42;14.43;;;9.50;57.70;;;;;;2130382;27;20044;-61
2021/03/01 05:01:23;;;;;;;22.35;15.18;;;9.50;57.70;;;;;;2125858;27;20110;-61
2021/03/01 05:02:44;;;;;;;20.23;14.07;;;9.50;57.60;;;;;;2130864;27;20023;-61
2021/03/01 05:04:05;;;;;;;20.63;14.20;;;9.50;57.60;;;;;;2129577;27;20046;-61
2021/03/01 05:05:26;;;;;;;21.13;13.95;;;9.50;57.60;;;;;;2125492;27;20027;-61
2021/03/01 05:06:47;;;;;;;18.45;13.25;;;9.50;57.60;;;;;;2129734;27;20018;-61
2021/03/01 05:08:15;;;;;;;22.80;13.85;;;9.50;57.50;;;;;;2122705;27;20035;-61
2021/03/01 05:09:38;;;;;;;19.33;13.85;;;9.50;57.70;;;;;;2125292;27;20026;-61
2021/03/01 05:11:00;;;;;;;20.38;14.05;;;9.50;57.50;;;;;;2128243;27;20027;-61
2021/03/01 05:12:21;;;;;;;21.35;14.15;;;9.50;58.00;;;;;;2131387;27;20054;-61
2021/03/01 05:13:41;;;;;;;19.83;13.65;;;9.50;57.50;;;;;;2127249;27;20366;-61
2021/03/01 05:15:04;;;;;;;17.85;12.95;;;9.50;57.50;;;;;;2125471;27;20027;-61
2021/03/01 05:16:26;;;;;;;18.50;13.05;;;9.50;57.50;;;;;;2124401;27;20103;-61
2021/03/01 05:17:47;;;;;;;17.33;12.25;;;9.50;57.50;;;;;;2122531;27;20072;-61
2021/03/01 05:19:08;;;;;;;18.33;13.00;;;9.50;57.50;;;;;;2119829;27;20084;-61
2021/03/01 05:20:29;;;;;;;19.27;13.13;;;9.50;57.50;;;;;;2117628;27;20051;-61
2021/03/01 05:21:50;;;;;;;19.95;12.93;;;9.50;57.50;;;;;;2124296;27;20038;-61
2021/03/01 05:23:11;;;;;;;19.40;13.45;;;9.40;57.50;;;;;;2121117;27;20482;-61
2021/03/01 05:24:32;;;;;;;18.77;13.30;;;9.40;57.50;;;;;;2124718;27;20030;-61
2021/03/01 05:25:53;;;;;;;19.83;13.27;;;9.40;57.50;;;;;;2127109;27;20092;-61
2021/03/01 05:27:14;;;;;;;19.83;13.35;;;9.40;57.50;;;;;;2130379;27;20023;-61
2021/03/01 05:28:38;;;;;;;18.95;12.88;;;9.40;57.50;;;;;;2130253;27;20037;-61
2021/03/01 05:29:59;;;;;;;19.63;13.30;;;9.40;57.60;;;;;;2128584;27;20043;-61
2021/03/01 05:31:20;;;;;;;21.55;14.23;;;9.40;57.50;;;;;;2124189;27;20023;-61
2021/03/01 05:32:41;;;;;;;19.10;13.43;;;9.40;57.40;;;;;;2124279;27;20038;-61
2021/03/01 05:34:02;;;;;;;21.30;14.32;;;9.40;57.40;;;;;;2128739;27;20030;-61
2021/03/01 05:35:23;;;;;;;21.98;14.52;;;9.50;57.60;;;;;;2128956;27;20034;-61
2021/03/01 05:36:44;;;;;;;24.23;15.10;;;9.40;57.50;;;;;;2128590;27;20457;-61
2021/03/01 05:38:05;;;;;;;21.17;14.30;;;9.40;57.60;;;;;;2129171;27;20468;-61
2021/03/01 05:39:26;;;;;;;22.13;14.60;;;9.40;57.70;;;;;;2125747;27;20376;-61
2021/03/01 05:40:47;;;;;;;19.20;13.25;;;9.40;57.70;;;;;;2129517;27;20065;-61
2021/03/01 05:42:11;;;;;;;19.35;13.15;;;9.40;57.70;;;;;;2127418;27;20030;-61
2021/03/01 05:43:32;;;;;;;18.95;13.02;;;9.40;57.70;;;;;;2125154;27;20023;-61
2021/03/01 05:44:54;;;;;;;20.13;12.90;;;9.40;57.70;;;;;;2126855;27;20070;-61
2021/03/01 05:46:16;;;;;;;19.38;12.88;;;9.40;57.70;;;;;;2126271;27;20034;-61
2021/03/01 05:47:38;;;;;;;20.17;13.15;;;9.40;57.70;;;;;;2124922;27;20527;-61
2021/03/01 05:48:59;;;;;;;20.70;12.95;;;9.40;57.60;;;;;;2128126;27;20031;-61
2021/03/01 05:50:21;;;;;;;17.88;12.98;;;9.40;57.70;;;;;;2127333;27;20178;-61
2021/03/01 05:51:48;;;;;;;17.13;11.60;;;9.40;57.60;;;;;;2126613;27;20091;-61
2021/03/01 05:53:12;;;;;;;19.13;13.20;;;9.30;57.60;;;;;;2124217;27;20385;-61
2021/03/01 05:54:35;;;;;;;18.38;12.63;;;9.30;57.60;;;;;;2119315;27;20118;-61
2021/03/01 05:55:59;;;;;;;19.10;13.52;;;9.30;57.60;;;;;;2128133;27;20045;-61
2021/03/01 05:57:22;;;;;;;19.27;13.00;;;9.30;57.80;;;;;;2126352;27;20026;-61
2021/03/01 05:58:44;;;;;;;19.60;13.45;;;9.30;57.70;;;;;;2130325;27;20044;-61
2021/03/01 06:00:06;;;;;;;18.90;13.98;;;9.30;57.80;;;;;;2129602;27;20029;-61
2021/03/01 06:01:30;;;;;;;24.13;14.73;;;9.30;57.80;;;;;;2123441;27;20031;-61
2021/03/01 06:02:52;;;;;;;21.63;13.80;;;9.30;57.90;;;;;;2128886;27;20031;-61
2021/03/01 06:04:13;;;;;;;21.08;13.63;;;9.30;57.80;;;;;;2130041;27;20489;-61
2021/03/01 06:05:33;;;;;;;22.58;13.90;;;9.30;57.90;;;;;;2126212;27;20449;-61
2021/03/01 06:06:55;;;;;;;20.55;13.52;;;9.30;57.90;;;;;;2130665;27;20473;-61
2021/03/01 06:08:16;;;;;;;19.85;13.73;;;9.30;57.90;;;;;;2128991;27;20384;-61
2021/03/01 06:09:39;;;;;;;21.20;13.60;;;9.30;57.90;;;;;;2127919;27;20065;-61
2021/03/01 06:11:03;;;;;;;20.30;13.27;;;9.30;58.00;;;;;;2130296;27;20121;-61
2021/03/01 06:12:24;;;;;;;19.65;13.07;;;9.30;58.10;;;;;;2128233;27;20019;-61
2021/03/01 06:13:44;;;;;;;20.67;13.57;;;9.30;58.00;;;;;;2130629;27;20754;-61
2021/03/01 06:15:08;;;;;;;20.65;12.57;;;9.30;58.00;;;;;;2125180;27;20045;-61
2021/03/01 06:16:30;;;;;;;21.05;13.52;;;9.30;58.20;;;;;;2130307;27;20117;-61
2021/03/01 06:18:08;;;;;;;18.42;12.65;;;9.30;58.10;;;;;;2130810;27;20026;-61
2021/03/01 06:19:55;;;;;;;19.88;12.82;;;9.30;58.40;;;;;;2126710;27;20034;-61
2021/03/01 06:21:17;;;;;;;18.75;12.40;;;9.30;58.30;;;;;;2124518;27;20027;-61
2021/03/01 06:22:44;;;;;;;20.08;13.27;;;9.30;57.90;;;;;;2130426;27;20027;-61
2021/03/01 06:24:13;;;;;;;18.20;12.38;;;9.30;58.10;;;;;;2128299;27;20119;-61
2021/03/01 06:25:34;;;;;;;19.52;13.07;;;9.30;58.10;;;;;;2130345;27;20022;-61
2021/03/01 06:26:57;;;;;;;19.73;13.13;;;9.30;57.90;;;;;;2130793;27;20438;-61
2021/03/01 06:28:27;;;;;;;20.13;13.07;;;9.30;58.10;;;;;;2128779;27;20026;-61
2021/03/01 06:30:06;;;;;;;19.60;12.98;;;9.40;58.20;;;;;;2129184;27;20031;-62
2021/03/01 06:31:40;;;;;;;20.20;12.75;;;9.40;58.30;;;;;;2125716;27;20454;-61
2021/03/01 06:33:10;;;;;;;19.67;12.50;;;9.30;58.00;;;;;;2130198;27;20042;-61
2021/03/01 06:34:32;;;;;;;20.05;12.50;;;9.40;58.10;;;;;;2126347;27;20109;-61
2021/03/01 06:35:57;;;;;;;21.63;13.80;;;9.40;58.10;;;;;;2130204;27;20563;-61
2021/03/01 06:37:18;;;;;;;20.20;13.15;;;9.30;58.00;;;;;;2126723;27;20029;-61
2021/03/01 06:38:41;;;;;;;18.75;13.15;;;9.40;58.10;;;;;;2130747;27;20034;-61
2021/03/01 06:40:02;;;;;;;20.38;13.20;;;9.40;58.10;;;;;;2130656;27;20031;-61
2021/03/01 06:41:25;;;;;;;18.70;12.30;;;9.40;58.20;;;;;;2124908;27;20629;-61
2021/03/01 06:42:45;;;;;;;19.90;13.70;;;9.40;58.20;;;;;;2129646;27;20026;-61
2021/03/01 06:44:06;;;;;;;20.42;12.95;;;9.40;58.20;;;;;;2128652;27;20033;-61
2021/03/01 06:45:27;;;;;;;18.80;13.20;;;9.40;58.30;;;;;;2127617;27;20497;-61
2021/03/01 06:46:50;;;;;;;22.08;13.63;;;9.30;58.20;;;;;;2129629;27;20079;-61
2021/03/01 06:48:12;;;;;;;21.38;13.90;;;9.30;58.20;;;;;;2125272;27;20046;-61
2021/03/01 06:49:35;;;;;;;20.02;12.90;;;9.40;58.30;;;;;;2131988;27;20168;-61
2021/03/01 06:50:57;;;;;;;20.33;13.60;;;9.40;58.50;;;;;;2131221;27;20461;-61
2021/03/01 06:52:37;;;;;;;22.15;14.77;;;9.40;58.40;;;;;;2125644;27;20046;-61
2021/03/01 06:53:59;;;;;;;21.50;13.10;;;9.40;58.60;;;;;;2131727;27;20109;-61
2021/03/01 06:55:21;;;;;;;21.38;14.27;;;9.40;58.20;;;;;;2125763;27;20027;-61
2021/03/01 06:56:43;;;;;;;21.13;13.65;;;9.40;58.20;;;;;;2131873;27;20026;-61
2021/03/01 06:58:18;;;;;;;21.38;13.80;;;9.40;58.20;;;;;;2131442;27;20031;-61
2021/03/01 06:59:39;;;;;;;20.48;12.90;;;9.40;58.50;;;;;;2131049;27;20029;-61
2021/03/01 07:01:06;;;;;;;20.92;13.18;;;9.40;58.50;;;;;;2129385;27;20026;-61
2021/03/01 07:02:37;;;;;;;21.13;13.68;;;9.40;58.40;;;;;;2126695;27;20027;-61
2021/03/01 07:04:02;;;;;;;21.75;14.07;;;9.40;58.50;;;;;;2131617;27;20034;-61
2021/03/01 07:05:23;;;;;;;18.48;12.43;;;9.40;58.40;;;;;;2125177;27;20913;-61
2021/03/01 07:06:44;;;;;;;19.17;12.85;;;9.40;58.40;;;;;;2132771;27;20106;-61
2021/03/01 07:08:05;;;;;;;20.20;13.52;;;9.40;58.40;;;;;;2131643;27;20030;-61